sensor_id;sensor_type;location;lat;lon;timestamp;temperature;humidity
56076;DHT22;41951;49.022;12.066;2023-09-19T00:01:57;16.70;99.90
56076;DHT22;41951;49.022;12.066;2023-09-19T00:04:22;16.70;99.90
56076;DHT22;41951;49.022;12.066;2023-09-19T00:06:54;16.70;99.90
56076;DHT22;41951;49.022;12.066;2023-09-19T00:09:20;16.70;99.90
56076;DHT22;41951;49.022;12.066;2023-09-19T00:11:45;16.70;99.90
56076;DHT22;41951;49.022;12.066;2023-09-19T00:14:13;16.70;99.90
56076;DHT22;41951;49.022;12.066;2023-09-19T00:16:40;16.70;99.90
56076;DHT22;41951;49.022;12.066;2023-09-19T00:19:06;16.70;99.90
56076;DHT22;41951;49.022;12.066;2023-09-19T00:21:32;16.70;99.90
56076;DHT22;41951;49.022;12.066;2023-09-19T00:23:58;16.80;99.90
56076;DHT22;41951;49.022;12.066;2023-09-19T00:26:23;16.70;99.90
56076;DHT22;41951;49.022;12.066;2023-09-19T00:28:52;16.90;99.90
56076;DHT22;41951;49.022;12.066;2023-09-19T00:31:18;16.90;99.90
56076;DHT22;41951;49.022;12.066;2023-09-19T00:33:44;16.80;99.90
56076;DHT22;41951;49.022;12.066;2023-09-19T00:36:09;16.70;99.90
56076;DHT22;41951;49.022;12.066;2023-09-19T00:38:35;16.70;99.90
56076;DHT22;41951;49.022;12.066;2023-09-19T00:41:00;16.70;99.90
56076;DHT22;41951;49.022;12.066;2023-09-19T00:43:26;16.70;99.90
56076;DHT22;41951;49.022;12.066;2023-09-19T00:45:54;16.70;99.90
56076;DHT22;41951;49.022;12.066;2023-09-19T00:48:21;16.80;99.90
56076;DHT22;41951;49.022;12.066;2023-09-19T00:50:47;16.80;99.90
56076;DHT22;41951;49.022;12.066;2023-09-19T00:53:17;16.70;99.90
56076;DHT22;41951;49.022;12.066;2023-09-19T00:55:44;16.70;99.90
56076;DHT22;41951;49.022;12.066;2023-09-19T00:58:11;16.70;99.90
56076;DHT22;41951;49.022;12.066;2023-09-19T01:00:36;16.70;99.90
56076;DHT22;41951;49.022;12.066;2023-09-19T01:03:03;16.70;99.90
56076;DHT22;41951;49.022;12.066;2023-09-19T01:05:29;16.70;99.90
56076;DHT22;41951;49.022;12.066;2023-09-19T01:07:57;16.70;99.90
56076;DHT22;41951;49.022;12.066;2023-09-19T01:10:23;16.70;99.90
56076;DHT22;41951;49.022;12.066;2023-09-19T01:13:56;16.70;99.90
56076;DHT22;41951;49.022;12.066;2023-09-19T01:16:11;16.70;99.90
56076;DHT22;41951;49.022;12.066;2023-09-19T01:21:38;16.70;99.90
56076;DHT22;41951;49.022;12.066;2023-09-19T01:27:17;16.70;99.90
56076;DHT22;41951;49.022;12.066;2023-09-19T01:29:49;16.70;99.90
56076;DHT22;41951;49.022;12.066;2023-09-19T01:32:21;16.70;99.90
56076;DHT22;41951;49.022;12.066;2023-09-19T01:34:47;16.70;99.90
56076;DHT22;41951;49.022;12.066;2023-09-19T01:37:15;16.70;99.90
56076;DHT22;41951;49.022;12.066;2023-09-19T01:39:50;16.80;99.90
56076;DHT22;41951;49.022;12.066;2023-09-19T01:42:21;16.70;99.90
56076;DHT22;41951;49.022;12.066;2023-09-19T01:47:26;16.80;99.90
56076;DHT22;41951;49.022;12.066;2023-09-19T01:50:13;16.70;99.90
56076;DHT22;41951;49.022;12.066;2023-09-19T01:52:47;16.70;99.90
56076;DHT22;41951;49.022;12.066;2023-09-19T01:55:14;16.80;99.90
56076;DHT22;41951;49.022;12.066;2023-09-19T02:00:26;16.80;99.90
56076;DHT22;41951;49.022;12.066;2023-09-19T02:02:54;16.70;99.90
56076;DHT22;41951;49.022;12.066;2023-09-19T02:05:23;16.80;99.90
56076;DHT22;41951;49.022;12.066;2023-09-19T02:07:55;16.70;99.90
56076;DHT22;41951;49.022;12.066;2023-09-19T02:10:22;16.70;99.90
56076;DHT22;41951;49.022;12.066;2023-09-19T02:12:48;16.70;99.90
56076;DHT22;41951;49.022;12.066;2023-09-19T02:15:15;16.70;99.90
56076;DHT22;41951;49.022;12.066;2023-09-19T02:17:42;16.70;99.90
56076;DHT22;41951;49.022;12.066;2023-09-19T02:20:09;16.70;99.90
56076;DHT22;41951;49.022;12.066;2023-09-19T02:22:35;16.70;99.90
56076;DHT22;41951;49.022;12.066;2023-09-19T02:25:01;16.80;99.90
56076;DHT22;41951;49.022;12.066;2023-09-19T02:27:27;16.80;99.90
56076;DHT22;41951;49.022;12.066;2023-09-19T02:29:53;16.60;99.90
56076;DHT22;41951;49.022;12.066;2023-09-19T02:32:19;16.80;99.90
56076;DHT22;41951;49.022;12.066;2023-09-19T02:34:45;16.70;99.90
56076;DHT22;41951;49.022;12.066;2023-09-19T02:37:10;16.70;99.90
56076;DHT22;41951;49.022;12.066;2023-09-19T02:39:36;16.80;99.90
56076;DHT22;41951;49.022;12.066;2023-09-19T02:42:02;16.80;99.90
56076;DHT22;41951;49.022;12.066;2023-09-19T02:44:29;16.80;99.90
56076;DHT22;41951;49.022;12.066;2023-09-19T02:46:55;16.80;99.90
56076;DHT22;41951;49.022;12.066;2023-09-19T02:49:22;16.80;99.90
56076;DHT22;41951;49.022;12.066;2023-09-19T02:51:48;16.90;99.90
56076;DHT22;41951;49.022;12.066;2023-09-19T02:54:14;16.90;99.90
56076;DHT22;41951;49.022;12.066;2023-09-19T02:56:41;16.90;99.90
56076;DHT22;41951;49.022;12.066;2023-09-19T02:59:06;16.80;99.90
56076;DHT22;41951;49.022;12.066;2023-09-19T03:01:32;16.90;99.90
56076;DHT22;41951;49.022;12.066;2023-09-19T03:03:59;16.90;99.90
56076;DHT22;41951;49.022;12.066;2023-09-19T03:06:24;16.90;99.90
56076;DHT22;41951;49.022;12.066;2023-09-19T03:08:50;16.90;99.90
56076;DHT22;41951;49.022;12.066;2023-09-19T03:11:17;16.90;99.90
56076;DHT22;41951;49.022;12.066;2023-09-19T03:13:51;16.90;99.90
56076;DHT22;41951;49.022;12.066;2023-09-19T03:16:16;16.80;99.90
56076;DHT22;41951;49.022;12.066;2023-09-19T03:18:42;16.80;99.90
56076;DHT22;41951;49.022;12.066;2023-09-19T03:21:08;16.80;99.90
56076;DHT22;41951;49.022;12.066;2023-09-19T03:23:34;16.80;99.90
56076;DHT22;41951;49.022;12.066;2023-09-19T03:25:59;16.80;99.90
56076;DHT22;41951;49.022;12.066;2023-09-19T03:28:25;16.80;99.90
56076;DHT22;41951;49.022;12.066;2023-09-19T03:31:01;16.80;99.90
56076;DHT22;41951;49.022;12.066;2023-09-19T03:33:27;16.70;99.90
56076;DHT22;41951;49.022;12.066;2023-09-19T03:35:53;16.70;99.90
56076;DHT22;41951;49.022;12.066;2023-09-19T03:38:20;16.70;99.90
56076;DHT22;41951;49.022;12.066;2023-09-19T03:40:47;16.60;99.90
56076;DHT22;41951;49.022;12.066;2023-09-19T03:43:13;16.70;99.90
56076;DHT22;41951;49.022;12.066;2023-09-19T03:45:38;16.60;99.90
56076;DHT22;41951;49.022;12.066;2023-09-19T03:48:10;16.60;99.90
56076;DHT22;41951;49.022;12.066;2023-09-19T03:50:36;16.60;99.90
56076;DHT22;41951;49.022;12.066;2023-09-19T03:53:02;16.60;99.90
56076;DHT22;41951;49.022;12.066;2023-09-19T03:55:28;16.60;99.90
56076;DHT22;41951;49.022;12.066;2023-09-19T03:57:55;16.50;99.90
56076;DHT22;41951;49.022;12.066;2023-09-19T04:00:21;16.60;99.90
56076;DHT22;41951;49.022;12.066;2023-09-19T04:02:49;16.60;99.90
56076;DHT22;41951;49.022;12.066;2023-09-19T04:05:14;16.60;99.90
56076;DHT22;41951;49.022;12.066;2023-09-19T04:07:40;16.50;99.90
56076;DHT22;41951;49.022;12.066;2023-09-19T04:10:06;16.60;99.90
56076;DHT22;41951;49.022;12.066;2023-09-19T04:12:34;16.60;99.90
56076;DHT22;41951;49.022;12.066;2023-09-19T04:15:00;16.60;99.90
56076;DHT22;41951;49.022;12.066;2023-09-19T04:17:25;16.50;99.90
56076;DHT22;41951;49.022;12.066;2023-09-19T04:19:51;16.50;99.90
56076;DHT22;41951;49.022;12.066;2023-09-19T04:22:16;16.50;99.90
56076;DHT22;41951;49.022;12.066;2023-09-19T04:24:42;16.50;99.90
56076;DHT22;41951;49.022;12.066;2023-09-19T04:27:08;16.50;99.90
56076;DHT22;41951;49.022;12.066;2023-09-19T04:29:35;16.40;99.90
56076;DHT22;41951;49.022;12.066;2023-09-19T04:32:00;16.50;99.90
56076;DHT22;41951;49.022;12.066;2023-09-19T04:34:26;16.40;99.90
56076;DHT22;41951;49.022;12.066;2023-09-19T04:36:52;16.50;99.90
56076;DHT22;41951;49.022;12.066;2023-09-19T04:39:18;16.50;99.90
56076;DHT22;41951;49.022;12.066;2023-09-19T04:41:44;16.50;99.90
56076;DHT22;41951;49.022;12.066;2023-09-19T04:44:10;16.50;99.90
56076;DHT22;41951;49.022;12.066;2023-09-19T04:46:35;16.50;99.90
56076;DHT22;41951;49.022;12.066;2023-09-19T04:49:01;16.50;99.90
56076;DHT22;41951;49.022;12.066;2023-09-19T04:51:30;16.50;99.90
56076;DHT22;41951;49.022;12.066;2023-09-19T04:54:00;16.50;99.90
56076;DHT22;41951;49.022;12.066;2023-09-19T04:56:25;16.50;99.90
56076;DHT22;41951;49.022;12.066;2023-09-19T04:58:51;16.40;99.90
56076;DHT22;41951;49.022;12.066;2023-09-19T05:01:16;16.40;99.90
56076;DHT22;41951;49.022;12.066;2023-09-19T05:03:42;16.40;99.90
56076;DHT22;41951;49.022;12.066;2023-09-19T05:06:10;16.40;99.90
56076;DHT22;41951;49.022;12.066;2023-09-19T05:08:35;16.40;99.90
56076;DHT22;41951;49.022;12.066;2023-09-19T05:11:04;16.40;99.90
56076;DHT22;41951;49.022;12.066;2023-09-19T05:13:29;16.40;99.90
56076;DHT22;41951;49.022;12.066;2023-09-19T05:16:00;16.40;99.90
56076;DHT22;41951;49.022;12.066;2023-09-19T05:18:27;16.40;99.90
56076;DHT22;41951;49.022;12.066;2023-09-19T05:20:53;16.40;99.90
56076;DHT22;41951;49.022;12.066;2023-09-19T05:23:20;16.30;99.90
56076;DHT22;41951;49.022;12.066;2023-09-19T05:25:46;16.30;99.90
56076;DHT22;41951;49.022;12.066;2023-09-19T05:28:12;16.30;99.90
56076;DHT22;41951;49.022;12.066;2023-09-19T05:30:40;16.40;99.90
56076;DHT22;41951;49.022;12.066;2023-09-19T05:33:08;16.30;99.90
56076;DHT22;41951;49.022;12.066;2023-09-19T05:35:34;16.40;99.90
56076;DHT22;41951;49.022;12.066;2023-09-19T05:38:00;16.40;99.90
56076;DHT22;41951;49.022;12.066;2023-09-19T05:40:26;16.40;99.90
56076;DHT22;41951;49.022;12.066;2023-09-19T05:42:52;16.40;99.90
56076;DHT22;41951;49.022;12.066;2023-09-19T05:45:18;16.40;99.90
56076;DHT22;41951;49.022;12.066;2023-09-19T05:47:52;16.40;99.90
56076;DHT22;41951;49.022;12.066;2023-09-19T05:50:21;16.30;99.90
56076;DHT22;41951;49.022;12.066;2023-09-19T05:52:54;16.30;99.90
56076;DHT22;41951;49.022;12.066;2023-09-19T05:55:21;16.20;99.90
56076;DHT22;41951;49.022;12.066;2023-09-19T05:57:53;16.30;99.90
56076;DHT22;41951;49.022;12.066;2023-09-19T06:00:23;16.20;99.90
56076;DHT22;41951;49.022;12.066;2023-09-19T06:02:52;16.30;99.90
56076;DHT22;41951;49.022;12.066;2023-09-19T06:05:18;16.30;99.90
56076;DHT22;41951;49.022;12.066;2023-09-19T06:07:45;16.30;99.90
56076;DHT22;41951;49.022;12.066;2023-09-19T06:10:11;16.40;99.90
56076;DHT22;41951;49.022;12.066;2023-09-19T06:12:43;16.40;99.90
56076;DHT22;41951;49.022;12.066;2023-09-19T06:15:10;16.40;99.90
56076;DHT22;41951;49.022;12.066;2023-09-19T06:17:46;16.40;99.90
56076;DHT22;41951;49.022;12.066;2023-09-19T06:20:12;16.60;99.90
56076;DHT22;41951;49.022;12.066;2023-09-19T06:22:42;16.70;99.90
56076;DHT22;41951;49.022;12.066;2023-09-19T06:25:13;16.80;99.90
56076;DHT22;41951;49.022;12.066;2023-09-19T06:27:51;16.80;99.90
56076;DHT22;41951;49.022;12.066;2023-09-19T06:30:22;16.80;99.90
56076;DHT22;41951;49.022;12.066;2023-09-19T06:32:49;16.90;99.90
56076;DHT22;41951;49.022;12.066;2023-09-19T06:35:16;16.90;99.90
56076;DHT22;41951;49.022;12.066;2023-09-19T06:37:43;17.00;99.90
56076;DHT22;41951;49.022;12.066;2023-09-19T06:40:14;17.10;99.90
56076;DHT22;41951;49.022;12.066;2023-09-19T06:42:52;17.10;99.90
56076;DHT22;41951;49.022;12.066;2023-09-19T06:45:19;17.10;99.90
56076;DHT22;41951;49.022;12.066;2023-09-19T06:47:50;17.20;99.90
56076;DHT22;41951;49.022;12.066;2023-09-19T06:50:20;17.10;99.90
56076;DHT22;41951;49.022;12.066;2023-09-19T06:52:51;17.30;99.90
56076;DHT22;41951;49.022;12.066;2023-09-19T06:55:21;17.30;99.90
56076;DHT22;41951;49.022;12.066;2023-09-19T06:57:51;17.30;99.90
56076;DHT22;41951;49.022;12.066;2023-09-19T07:00:17;17.40;99.90
56076;DHT22;41951;49.022;12.066;2023-09-19T07:02:44;17.40;99.90
56076;DHT22;41951;49.022;12.066;2023-09-19T07:05:10;17.40;99.90
56076;DHT22;41951;49.022;12.066;2023-09-19T07:07:36;17.50;99.90
56076;DHT22;41951;49.022;12.066;2023-09-19T07:10:05;17.50;99.90
56076;DHT22;41951;49.022;12.066;2023-09-19T07:12:31;17.50;99.90
56076;DHT22;41951;49.022;12.066;2023-09-19T07:14:58;17.70;99.90
56076;DHT22;41951;49.022;12.066;2023-09-19T07:17:23;17.70;99.90
56076;DHT22;41951;49.022;12.066;2023-09-19T07:19:49;17.80;99.90
56076;DHT22;41951;49.022;12.066;2023-09-19T07:22:16;17.80;99.90
56076;DHT22;41951;49.022;12.066;2023-09-19T07:24:41;17.80;99.90
56076;DHT22;41951;49.022;12.066;2023-09-19T07:27:07;17.80;99.90
56076;DHT22;41951;49.022;12.066;2023-09-19T07:29:32;17.80;99.90
56076;DHT22;41951;49.022;12.066;2023-09-19T07:31:58;17.80;99.90
56076;DHT22;41951;49.022;12.066;2023-09-19T07:34:23;17.80;99.90
56076;DHT22;41951;49.022;12.066;2023-09-19T07:36:49;17.90;99.90
56076;DHT22;41951;49.022;12.066;2023-09-19T07:39:15;18.00;99.90
56076;DHT22;41951;49.022;12.066;2023-09-19T07:41:41;18.10;99.90
56076;DHT22;41951;49.022;12.066;2023-09-19T07:44:07;18.20;99.90
56076;DHT22;41951;49.022;12.066;2023-09-19T07:46:35;18.30;99.90
56076;DHT22;41951;49.022;12.066;2023-09-19T07:49:01;18.30;99.90
56076;DHT22;41951;49.022;12.066;2023-09-19T07:51:26;18.40;99.90
56076;DHT22;41951;49.022;12.066;2023-09-19T07:53:52;18.40;99.90
56076;DHT22;41951;49.022;12.066;2023-09-19T07:56:18;18.50;99.90
56076;DHT22;41951;49.022;12.066;2023-09-19T07:58:46;18.40;99.90
56076;DHT22;41951;49.022;12.066;2023-09-19T08:01:12;18.40;99.90
56076;DHT22;41951;49.022;12.066;2023-09-19T08:03:39;18.40;99.90
56076;DHT22;41951;49.022;12.066;2023-09-19T08:06:06;18.30;99.90
56076;DHT22;41951;49.022;12.066;2023-09-19T08:08:33;18.20;99.90
56076;DHT22;41951;49.022;12.066;2023-09-19T08:11:03;18.20;99.90
56076;DHT22;41951;49.022;12.066;2023-09-19T08:13:36;18.20;99.90
56076;DHT22;41951;49.022;12.066;2023-09-19T08:16:02;18.20;99.90
56076;DHT22;41951;49.022;12.066;2023-09-19T08:18:28;18.20;99.90
56076;DHT22;41951;49.022;12.066;2023-09-19T08:20:55;18.20;99.90
56076;DHT22;41951;49.022;12.066;2023-09-19T08:23:24;18.30;99.90
56076;DHT22;41951;49.022;12.066;2023-09-19T08:25:49;18.40;99.90
56076;DHT22;41951;49.022;12.066;2023-09-19T08:28:15;18.50;99.90
56076;DHT22;41951;49.022;12.066;2023-09-19T08:30:45;18.60;99.90
56076;DHT22;41951;49.022;12.066;2023-09-19T08:33:11;18.60;99.90
56076;DHT22;41951;49.022;12.066;2023-09-19T08:35:37;18.70;99.90
56076;DHT22;41951;49.022;12.066;2023-09-19T08:38:05;18.70;99.90
56076;DHT22;41951;49.022;12.066;2023-09-19T08:40:32;18.70;99.90
56076;DHT22;41951;49.022;12.066;2023-09-19T08:42:59;18.60;99.90
56076;DHT22;41951;49.022;12.066;2023-09-19T08:45:26;18.60;99.90
56076;DHT22;41951;49.022;12.066;2023-09-19T08:50:29;18.80;99.90
56076;DHT22;41951;49.022;12.066;2023-09-19T08:53:00;19.00;99.90
56076;DHT22;41951;49.022;12.066;2023-09-19T08:55:27;19.10;99.90
56076;DHT22;41951;49.022;12.066;2023-09-19T08:58:03;19.20;99.90
56076;DHT22;41951;49.022;12.066;2023-09-19T09:00:30;19.20;99.90
56076;DHT22;41951;49.022;12.066;2023-09-19T09:02:57;19.10;99.90
56076;DHT22;41951;49.022;12.066;2023-09-19T09:05:24;19.00;99.90
56076;DHT22;41951;49.022;12.066;2023-09-19T09:07:50;19.00;99.90
56076;DHT22;41951;49.022;12.066;2023-09-19T09:10:17;19.10;99.90
56076;DHT22;41951;49.022;12.066;2023-09-19T09:12:43;19.10;99.90
56076;DHT22;41951;49.022;12.066;2023-09-19T09:15:10;19.20;99.90
56076;DHT22;41951;49.022;12.066;2023-09-19T09:17:38;19.20;99.90
56076;DHT22;41951;49.022;12.066;2023-09-19T09:20:03;19.10;99.90
56076;DHT22;41951;49.022;12.066;2023-09-19T09:22:33;18.90;99.90
56076;DHT22;41951;49.022;12.066;2023-09-19T09:24:59;18.90;99.90
56076;DHT22;41951;49.022;12.066;2023-09-19T09:27:29;18.70;99.90
56076;DHT22;41951;49.022;12.066;2023-09-19T09:29:55;18.50;99.90
56076;DHT22;41951;49.022;12.066;2023-09-19T09:32:30;18.50;99.90
56076;DHT22;41951;49.022;12.066;2023-09-19T09:35:01;18.50;99.90
56076;DHT22;41951;49.022;12.066;2023-09-19T09:37:28;18.50;99.90
56076;DHT22;41951;49.022;12.066;2023-09-19T09:40:00;18.30;99.90
56076;DHT22;41951;49.022;12.066;2023-09-19T09:42:45;18.30;99.90
56076;DHT22;41951;49.022;12.066;2023-09-19T09:45:19;18.20;99.90
56076;DHT22;41951;49.022;12.066;2023-09-19T09:47:54;18.10;99.90
56076;DHT22;41951;49.022;12.066;2023-09-19T09:50:36;18.10;99.90
56076;DHT22;41951;49.022;12.066;2023-09-19T09:53:30;18.10;99.90
56076;DHT22;41951;49.022;12.066;2023-09-19T09:56:08;18.20;99.90
56076;DHT22;41951;49.022;12.066;2023-09-19T09:58:50;18.20;99.90
56076;DHT22;41951;49.022;12.066;2023-09-19T10:01:20;18.30;99.90
56076;DHT22;41951;49.022;12.066;2023-09-19T10:03:46;18.30;99.90
56076;DHT22;41951;49.022;12.066;2023-09-19T10:06:16;18.30;99.90
56076;DHT22;41951;49.022;12.066;2023-09-19T10:14:09;18.50;99.90
56076;DHT22;41951;49.022;12.066;2023-09-19T10:16:36;18.60;99.90
56076;DHT22;41951;49.022;12.066;2023-09-19T10:19:07;18.50;99.90
56076;DHT22;41951;49.022;12.066;2023-09-19T10:21:36;18.60;99.90
56076;DHT22;41951;49.022;12.066;2023-09-19T10:24:03;18.70;99.90
56076;DHT22;41951;49.022;12.066;2023-09-19T10:26:34;18.70;99.90
56076;DHT22;41951;49.022;12.066;2023-09-19T10:29:02;18.90;99.90
56076;DHT22;41951;49.022;12.066;2023-09-19T10:31:29;19.00;99.90
56076;DHT22;41951;49.022;12.066;2023-09-19T10:34:03;19.00;99.90
56076;DHT22;41951;49.022;12.066;2023-09-19T10:36:32;19.10;99.90
56076;DHT22;41951;49.022;12.066;2023-09-19T10:39:00;19.20;99.90
56076;DHT22;41951;49.022;12.066;2023-09-19T10:41:31;19.30;99.90
56076;DHT22;41951;49.022;12.066;2023-09-19T10:44:03;19.40;99.90
56076;DHT22;41951;49.022;12.066;2023-09-19T10:46:34;19.60;99.90
56076;DHT22;41951;49.022;12.066;2023-09-19T10:49:01;19.70;99.90
56076;DHT22;41951;49.022;12.066;2023-09-19T10:51:31;19.80;99.90
56076;DHT22;41951;49.022;12.066;2023-09-19T10:54:12;19.80;99.90
56076;DHT22;41951;49.022;12.066;2023-09-19T10:56:42;19.70;99.90
56076;DHT22;41951;49.022;12.066;2023-09-19T10:59:12;19.60;99.90
56076;DHT22;41951;49.022;12.066;2023-09-19T11:04:32;19.60;99.90
56076;DHT22;41951;49.022;12.066;2023-09-19T11:07:10;19.80;99.90
56076;DHT22;41951;49.022;12.066;2023-09-19T11:09:53;19.80;99.90
56076;DHT22;41951;49.022;12.066;2023-09-19T11:14:58;19.80;99.90
56076;DHT22;41951;49.022;12.066;2023-09-19T11:17:34;19.80;99.90
56076;DHT22;41951;49.022;12.066;2023-09-19T11:30:48;20.10;99.90
56076;DHT22;41951;49.022;12.066;2023-09-19T11:36:11;20.30;99.90
56076;DHT22;41951;49.022;12.066;2023-09-19T11:43:54;20.50;99.90
56076;DHT22;41951;49.022;12.066;2023-09-19T11:49:19;20.50;99.90
56076;DHT22;41951;49.022;12.066;2023-09-19T11:51:51;20.50;99.90
56076;DHT22;41951;49.022;12.066;2023-09-19T11:54:19;20.70;99.90
56076;DHT22;41951;49.022;12.066;2023-09-19T11:56:51;20.80;99.90
56076;DHT22;41951;49.022;12.066;2023-09-19T11:59:30;20.90;99.90
56076;DHT22;41951;49.022;12.066;2023-09-19T12:02:00;20.80;99.90
56076;DHT22;41951;49.022;12.066;2023-09-19T12:04:40;20.80;99.90
56076;DHT22;41951;49.022;12.066;2023-09-19T12:07:16;20.90;99.90
56076;DHT22;41951;49.022;12.066;2023-09-19T12:09:48;21.00;99.90
56076;DHT22;41951;49.022;12.066;2023-09-19T12:12:22;21.00;99.90
56076;DHT22;41951;49.022;12.066;2023-09-19T12:14:49;21.00;99.90
56076;DHT22;41951;49.022;12.066;2023-09-19T12:17:16;21.10;99.90
56076;DHT22;41951;49.022;12.066;2023-09-19T12:19:55;21.20;99.90
56076;DHT22;41951;49.022;12.066;2023-09-19T12:22:21;21.20;99.90
56076;DHT22;41951;49.022;12.066;2023-09-19T12:24:47;21.40;99.90
56076;DHT22;41951;49.022;12.066;2023-09-19T12:27:13;21.50;99.90
56076;DHT22;41951;49.022;12.066;2023-09-19T12:29:47;21.70;99.90
56076;DHT22;41951;49.022;12.066;2023-09-19T12:32:17;21.60;99.90
56076;DHT22;41951;49.022;12.066;2023-09-19T12:34:51;21.90;99.90
56076;DHT22;41951;49.022;12.066;2023-09-19T12:37:17;22.20;99.90
56076;DHT22;41951;49.022;12.066;2023-09-19T12:39:48;22.30;99.90
56076;DHT22;41951;49.022;12.066;2023-09-19T12:42:19;22.30;99.90
56076;DHT22;41951;49.022;12.066;2023-09-19T12:44:48;22.50;99.90
56076;DHT22;41951;49.022;12.066;2023-09-19T12:47:16;22.50;99.90
56076;DHT22;41951;49.022;12.066;2023-09-19T12:50:18;22.50;99.90
56076;DHT22;41951;49.022;12.066;2023-09-19T12:52:52;22.40;99.90
56076;DHT22;41951;49.022;12.066;2023-09-19T13:00:38;21.90;99.90
56076;DHT22;41951;49.022;12.066;2023-09-19T13:05:58;21.70;99.90
56076;DHT22;41951;49.022;12.066;2023-09-19T13:08:34;21.60;99.90
56076;DHT22;41951;49.022;12.066;2023-09-19T13:11:13;21.50;99.90
56076;DHT22;41951;49.022;12.066;2023-09-19T13:16:14;21.90;99.90
56076;DHT22;41951;49.022;12.066;2023-09-19T13:18:49;22.20;99.90
56076;DHT22;41951;49.022;12.066;2023-09-19T13:23:56;22.50;99.90
56076;DHT22;41951;49.022;12.066;2023-09-19T13:26:27;22.40;99.90
56076;DHT22;41951;49.022;12.066;2023-09-19T13:28:54;22.40;99.90
56076;DHT22;41951;49.022;12.066;2023-09-19T13:31:20;22.50;99.90
56076;DHT22;41951;49.022;12.066;2023-09-19T13:33:48;22.80;99.90
56076;DHT22;41951;49.022;12.066;2023-09-19T13:36:14;22.80;99.90
56076;DHT22;41951;49.022;12.066;2023-09-19T13:38:41;22.90;99.90
56076;DHT22;41951;49.022;12.066;2023-09-19T13:41:09;22.90;99.90
56076;DHT22;41951;49.022;12.066;2023-09-19T13:43:36;23.50;99.90
56076;DHT22;41951;49.022;12.066;2023-09-19T13:46:01;23.70;99.90
56076;DHT22;41951;49.022;12.066;2023-09-19T13:48:27;23.90;99.90
56076;DHT22;41951;49.022;12.066;2023-09-19T13:50:55;24.10;99.90
56076;DHT22;41951;49.022;12.066;2023-09-19T13:53:21;24.60;99.90
56076;DHT22;41951;49.022;12.066;2023-09-19T13:55:46;24.50;99.90
56076;DHT22;41951;49.022;12.066;2023-09-19T13:58:14;24.60;99.90
56076;DHT22;41951;49.022;12.066;2023-09-19T14:00:39;24.80;99.50
56076;DHT22;41951;49.022;12.066;2023-09-19T14:03:05;24.90;98.50
56076;DHT22;41951;49.022;12.066;2023-09-19T14:05:31;24.80;98.20
56076;DHT22;41951;49.022;12.066;2023-09-19T14:07:57;25.20;98.00
56076;DHT22;41951;49.022;12.066;2023-09-19T14:10:24;24.70;97.30
56076;DHT22;41951;49.022;12.066;2023-09-19T14:12:53;24.50;98.00
56076;DHT22;41951;49.022;12.066;2023-09-19T14:15:18;24.30;97.80
56076;DHT22;41951;49.022;12.066;2023-09-19T14:17:44;24.00;98.00
56076;DHT22;41951;49.022;12.066;2023-09-19T14:20:12;24.00;97.80
56076;DHT22;41951;49.022;12.066;2023-09-19T14:22:39;24.10;98.00
56076;DHT22;41951;49.022;12.066;2023-09-19T14:25:05;24.00;97.80
56076;DHT22;41951;49.022;12.066;2023-09-19T14:27:31;23.90;98.10
56076;DHT22;41951;49.022;12.066;2023-09-19T14:29:56;23.30;97.80
56076;DHT22;41951;49.022;12.066;2023-09-19T14:32:23;23.70;98.00
56076;DHT22;41951;49.022;12.066;2023-09-19T14:34:48;23.40;98.20
56076;DHT22;41951;49.022;12.066;2023-09-19T14:37:14;23.30;98.40
56076;DHT22;41951;49.022;12.066;2023-09-19T14:39:42;23.10;98.60
56076;DHT22;41951;49.022;12.066;2023-09-19T14:42:10;23.20;98.80
56076;DHT22;41951;49.022;12.066;2023-09-19T14:44:36;23.10;98.90
56076;DHT22;41951;49.022;12.066;2023-09-19T14:47:03;23.40;99.40
56076;DHT22;41951;49.022;12.066;2023-09-19T14:49:36;24.00;99.90
56076;DHT22;41951;49.022;12.066;2023-09-19T14:52:08;24.70;98.80
56076;DHT22;41951;49.022;12.066;2023-09-19T14:54:34;25.60;96.80
56076;DHT22;41951;49.022;12.066;2023-09-19T14:57:00;25.70;95.70
56076;DHT22;41951;49.022;12.066;2023-09-19T14:59:34;25.00;95.70
56076;DHT22;41951;49.022;12.066;2023-09-19T15:02:03;24.20;96.30
56076;DHT22;41951;49.022;12.066;2023-09-19T15:04:29;23.80;97.20
56076;DHT22;41951;49.022;12.066;2023-09-19T15:06:55;23.50;97.90
56076;DHT22;41951;49.022;12.066;2023-09-19T15:09:24;23.20;98.60
56076;DHT22;41951;49.022;12.066;2023-09-19T15:11:53;22.90;98.90
56076;DHT22;41951;49.022;12.066;2023-09-19T15:14:19;22.70;99.40
56076;DHT22;41951;49.022;12.066;2023-09-19T15:16:45;22.60;99.50
56076;DHT22;41951;49.022;12.066;2023-09-19T15:19:10;22.50;99.80
56076;DHT22;41951;49.022;12.066;2023-09-19T15:21:36;22.40;99.90
56076;DHT22;41951;49.022;12.066;2023-09-19T15:24:05;22.40;99.90
56076;DHT22;41951;49.022;12.066;2023-09-19T15:26:35;22.40;99.90
56076;DHT22;41951;49.022;12.066;2023-09-19T15:29:07;22.30;99.90
56076;DHT22;41951;49.022;12.066;2023-09-19T15:31:32;22.30;99.90
56076;DHT22;41951;49.022;12.066;2023-09-19T15:33:58;22.30;99.90
56076;DHT22;41951;49.022;12.066;2023-09-19T15:36:24;22.20;99.90
56076;DHT22;41951;49.022;12.066;2023-09-19T15:39:04;22.10;99.90
56076;DHT22;41951;49.022;12.066;2023-09-19T15:41:42;22.00;99.90
56076;DHT22;41951;49.022;12.066;2023-09-19T15:44:14;21.90;99.90
56076;DHT22;41951;49.022;12.066;2023-09-19T15:46:41;21.90;99.90
56076;DHT22;41951;49.022;12.066;2023-09-19T15:49:07;21.80;99.90
56076;DHT22;41951;49.022;12.066;2023-09-19T15:51:33;21.70;99.90
56076;DHT22;41951;49.022;12.066;2023-09-19T15:54:01;21.80;99.90
56076;DHT22;41951;49.022;12.066;2023-09-19T15:56:33;21.70;99.90
56076;DHT22;41951;49.022;12.066;2023-09-19T15:59:00;21.60;99.90
56076;DHT22;41951;49.022;12.066;2023-09-19T16:01:26;21.50;99.90
56076;DHT22;41951;49.022;12.066;2023-09-19T16:03:53;21.50;99.90
56076;DHT22;41951;49.022;12.066;2023-09-19T16:06:20;21.30;99.90
56076;DHT22;41951;49.022;12.066;2023-09-19T16:08:50;21.30;99.90
56076;DHT22;41951;49.022;12.066;2023-09-19T16:11:19;21.20;99.90
56076;DHT22;41951;49.022;12.066;2023-09-19T16:13:49;21.20;99.90
56076;DHT22;41951;49.022;12.066;2023-09-19T16:16:16;21.20;99.90
56076;DHT22;41951;49.022;12.066;2023-09-19T16:18:56;21.10;99.90
56076;DHT22;41951;49.022;12.066;2023-09-19T16:21:24;21.10;99.90
56076;DHT22;41951;49.022;12.066;2023-09-19T16:23:50;21.00;99.90